createdAt,value
2022-10-23T00:01:20.381Z,4.40
2022-10-23T00:03:50.484Z,5.18
2022-10-23T00:06:17.643Z,4.45
2022-10-23T00:08:46.475Z,4.90
2022-10-23T00:11:15.929Z,4.60
2022-10-23T00:13:42.848Z,4.60
2022-10-23T00:16:09.792Z,4.93
2022-10-23T00:18:38.044Z,4.32
2022-10-23T00:21:06.216Z,4.72
2022-10-23T00:23:32.843Z,4.93
2022-10-23T00:26:00.275Z,5.47
2022-10-23T00:28:27.145Z,4.40
2022-10-23T00:30:53.765Z,5.15
2022-10-23T00:33:20.445Z,4.28
2022-10-23T00:35:47.056Z,4.43
2022-10-23T00:38:13.681Z,4.80
2022-10-23T00:40:42.176Z,4.88
2022-10-23T00:43:24.402Z,4.80
2022-10-23T00:45:51.489Z,4.70
2022-10-23T00:48:18.719Z,5.20
2022-10-23T00:50:47.584Z,5.45
2022-10-23T00:53:15.580Z,5.30
2022-10-23T00:55:46.847Z,4.82
2022-10-23T00:58:18.442Z,5.05
2022-10-23T01:00:51.838Z,4.63
2022-10-23T01:03:20.324Z,4.50
2022-10-23T01:05:53.027Z,5.00
2022-10-23T01:08:25.600Z,4.28
2022-10-23T01:11:04.708Z,5.00
2022-10-23T01:13:50.169Z,4.30
2022-10-23T01:16:41.724Z,4.38
2022-10-23T01:19:25.167Z,4.55
2022-10-23T01:22:19.958Z,4.20
2022-10-23T01:24:57.767Z,4.68
2022-10-23T01:27:27.480Z,4.60
2022-10-23T01:30:10.492Z,3.85
2022-10-23T01:32:52.643Z,4.35
2022-10-23T01:35:34.214Z,4.15
2022-10-23T01:38:06.288Z,4.03
2022-10-23T01:40:47.234Z,4.05
2022-10-23T01:43:21.983Z,4.22
2022-10-23T01:45:54.023Z,4.38
2022-10-23T01:48:28.107Z,3.75
2022-10-23T01:50:58.623Z,3.42
2022-10-23T01:53:27.744Z,3.80
2022-10-23T01:55:55.733Z,4.20
2022-10-23T01:58:25.345Z,4.20
2022-10-23T02:00:56.811Z,4.45
2022-10-23T02:03:24.511Z,3.97
2022-10-23T02:05:51.193Z,4.00
2022-10-23T02:08:17.800Z,3.75
2022-10-23T02:11:13.468Z,4.20
2022-10-23T02:13:59.516Z,3.90
2022-10-23T02:16:50.575Z,4.00
2022-10-23T02:19:22.858Z,3.92
2022-10-23T02:22:07.397Z,3.78
2022-10-23T02:24:51.862Z,4.03
2022-10-23T02:27:29.304Z,4.05
2022-10-23T02:30:03.253Z,3.63
2022-10-23T02:32:30.277Z,4.10
2022-10-23T02:34:57.102Z,4.07
2022-10-23T02:37:25.361Z,3.70
2022-10-23T02:39:52.947Z,3.67
2022-10-23T02:42:30.703Z,3.30
2022-10-23T02:45:06.071Z,3.80
2022-10-23T02:47:46.596Z,4.15
2022-10-23T02:50:33.147Z,4.13
2022-10-23T02:53:06.836Z,3.65
2022-10-23T02:56:05.997Z,3.40
2022-10-23T02:58:54.701Z,4.10
2022-10-23T03:01:28.733Z,3.60
2022-10-23T03:04:02.879Z,3.72
2022-10-23T03:06:29.424Z,3.50
2022-10-23T03:09:04.193Z,3.55
2022-10-23T03:11:30.983Z,3.42
2022-10-23T03:13:57.591Z,3.80
2022-10-23T03:16:24.426Z,3.72
2022-10-23T03:18:51.152Z,4.00
2022-10-23T03:21:17.918Z,3.70
2022-10-23T03:23:44.680Z,3.58
2022-10-23T03:26:11.322Z,3.40
2022-10-23T03:28:37.833Z,3.70
2022-10-23T03:31:05.078Z,4.00
2022-10-23T03:33:32.496Z,3.30
2022-10-23T03:35:59.053Z,3.55
2022-10-23T03:38:25.634Z,4.13
2022-10-23T03:40:52.168Z,3.28
2022-10-23T03:43:18.736Z,3.30
2022-10-23T03:45:45.296Z,3.88
2022-10-23T03:48:12.040Z,3.72
2022-10-23T03:50:38.603Z,3.13
2022-10-23T03:53:05.176Z,3.10
2022-10-23T03:55:31.755Z,4.00
2022-10-23T03:57:58.328Z,2.97
2022-10-23T04:00:24.980Z,3.45
2022-10-23T04:02:51.579Z,3.45
2022-10-23T04:05:18.215Z,3.35
2022-10-23T04:07:44.795Z,3.05
2022-10-23T04:10:11.414Z,2.90
2022-10-23T04:12:38.051Z,3.40
2022-10-23T04:15:05.117Z,3.00
2022-10-23T04:17:31.730Z,3.15
2022-10-23T04:19:58.255Z,3.25
2022-10-23T04:22:27.605Z,3.05
2022-10-23T04:24:55.353Z,3.15
2022-10-23T04:27:21.920Z,3.00
2022-10-23T04:29:49.096Z,3.40
2022-10-23T04:32:15.909Z,3.25
2022-10-23T04:34:42.445Z,3.10
2022-10-23T04:37:09.012Z,2.80
2022-10-23T04:39:35.615Z,3.28
2022-10-23T04:42:02.276Z,3.00
2022-10-23T04:44:28.928Z,2.65
2022-10-23T04:46:55.521Z,2.88
2022-10-23T04:49:22.174Z,3.50
2022-10-23T04:51:48.740Z,3.20
2022-10-23T04:54:15.326Z,3.25
2022-10-23T04:56:41.989Z,2.80
2022-10-23T04:59:08.887Z,2.83
2022-10-23T05:01:35.782Z,2.90
2022-10-23T05:04:02.467Z,3.10
2022-10-23T05:06:29.052Z,3.13
2022-10-23T05:08:56.169Z,3.20
2022-10-23T05:11:23.064Z,3.10
2022-10-23T05:13:49.623Z,3.33
2022-10-23T05:16:37.647Z,3.33
2022-10-23T05:19:07.208Z,3.03
2022-10-23T05:21:35.704Z,2.75
2022-10-23T05:24:02.490Z,3.00
2022-10-23T05:26:30.996Z,2.75
2022-10-23T05:28:58.653Z,2.85
2022-10-23T05:31:25.771Z,2.95
2022-10-23T05:33:54.754Z,2.85
2022-10-23T05:36:23.292Z,2.70
2022-10-23T05:38:50.315Z,2.60
2022-10-23T05:41:17.255Z,2.42
2022-10-23T05:43:43.966Z,2.72
2022-10-23T05:46:10.516Z,3.03
2022-10-23T05:48:37.069Z,2.70
2022-10-23T05:51:08.911Z,2.92
2022-10-23T05:53:38.707Z,3.03
2022-10-23T05:56:08.824Z,3.20
2022-10-23T05:58:35.620Z,2.80
2022-10-23T06:01:07.589Z,3.10
2022-10-23T06:03:35.039Z,2.80
2022-10-23T06:06:01.683Z,2.63
2022-10-23T06:08:28.853Z,2.80
2022-10-23T06:10:55.383Z,3.10
2022-10-23T06:13:21.930Z,3.08
2022-10-23T06:15:48.543Z,2.33
2022-10-23T06:18:15.266Z,3.30
2022-10-23T06:20:41.844Z,3.47
2022-10-23T06:23:08.489Z,3.15
2022-10-23T06:25:35.062Z,2.50
2022-10-23T06:28:01.679Z,2.65
2022-10-23T06:30:28.352Z,3.03
2022-10-23T06:32:55.030Z,3.20
2022-10-23T06:35:21.787Z,2.75
2022-10-23T06:37:48.372Z,2.45
2022-10-23T06:40:15.039Z,3.17
2022-10-23T06:42:41.925Z,2.90
2022-10-23T06:45:08.929Z,2.60
2022-10-23T06:47:35.519Z,3.10
2022-10-23T06:50:02.221Z,2.65
2022-10-23T06:52:47.861Z,2.72
2022-10-23T06:55:14.965Z,3.00
2022-10-23T06:57:42.240Z,2.80
2022-10-23T07:00:10.377Z,2.58
2022-10-23T07:02:37.111Z,3.00
2022-10-23T07:05:04.335Z,2.50
2022-10-23T07:07:31.547Z,2.80
2022-10-23T07:09:58.324Z,3.35
2022-10-23T07:12:24.935Z,3.30
2022-10-23T07:14:51.550Z,2.90
2022-10-23T07:17:18.161Z,3.40
2022-10-23T07:19:46.128Z,3.58
2022-10-23T07:22:15.714Z,3.55
2022-10-23T07:24:42.766Z,4.03
2022-10-23T07:27:09.325Z,4.50
2022-10-23T07:29:35.963Z,4.15
2022-10-23T07:32:02.682Z,4.25
2022-10-23T07:34:29.279Z,5.32
2022-10-23T07:36:56.898Z,5.80
2022-10-23T07:39:23.726Z,5.15
2022-10-23T07:41:50.654Z,5.03
2022-10-23T07:44:18.277Z,4.25
2022-10-23T07:46:44.849Z,4.38
2022-10-23T07:49:11.792Z,4.30
2022-10-23T07:51:38.351Z,4.78
2022-10-23T07:54:05.095Z,4.65
2022-10-23T07:56:31.683Z,4.95
2022-10-23T07:58:58.352Z,5.10
2022-10-23T08:01:31.192Z,5.25
2022-10-23T08:03:58.132Z,5.30
2022-10-23T08:06:24.839Z,4.65
2022-10-23T08:08:51.777Z,5.75
2022-10-23T08:11:25.703Z,4.78
2022-10-23T08:13:53.352Z,4.50
2022-10-23T08:16:20.221Z,4.93
2022-10-23T08:18:48.409Z,4.65
2022-10-23T08:21:16.169Z,4.60
2022-10-23T08:23:43.368Z,4.72
2022-10-23T08:26:10.109Z,5.13
2022-10-23T08:28:37.043Z,4.88
2022-10-23T08:31:09.469Z,4.80
2022-10-23T08:33:36.819Z,5.72
2022-10-23T08:36:03.869Z,5.53
2022-10-23T08:38:30.516Z,5.70
2022-10-23T08:40:57.348Z,5.55
2022-10-23T08:43:39.107Z,4.70
2022-10-23T08:46:12.911Z,5.65
2022-10-23T08:48:45.545Z,5.03
2022-10-23T08:51:18.674Z,5.18
2022-10-23T08:54:22.907Z,5.10
2022-10-23T08:57:00.177Z,4.80
2022-10-23T08:59:33.084Z,4.18
2022-10-23T09:02:27.668Z,5.10
2022-10-23T09:04:57.142Z,4.45
2022-10-23T09:07:56.000Z,4.72
2022-10-23T09:10:46.020Z,4.55
2022-10-23T09:13:26.699Z,4.07
2022-10-23T09:16:12.816Z,4.18
2022-10-23T09:18:42.162Z,4.28
2022-10-23T09:21:11.915Z,4.32
2022-10-23T09:23:38.820Z,4.78
2022-10-23T09:26:14.891Z,4.25
2022-10-23T09:28:55.251Z,3.65
2022-10-23T09:31:21.865Z,3.97
2022-10-23T09:33:59.717Z,4.25
2022-10-23T09:36:29.185Z,3.97
2022-10-23T09:39:00.001Z,3.53
2022-10-23T09:41:31.583Z,4.30
2022-10-23T09:44:07.431Z,4.68
2022-10-23T09:46:55.330Z,4.53
2022-10-23T09:49:30.402Z,4.63
2022-10-23T09:52:02.009Z,4.20
2022-10-23T09:54:36.609Z,4.43
2022-10-23T09:57:45.227Z,4.53
2022-10-23T10:00:15.033Z,5.07
2022-10-23T10:02:44.189Z,4.32
2022-10-23T10:05:27.553Z,4.13
2022-10-23T10:08:21.325Z,4.43
2022-10-23T10:10:51.561Z,4.53
2022-10-23T10:13:33.368Z,4.50
2022-10-23T10:16:24.470Z,4.43
2022-10-23T10:19:13.166Z,4.05
2022-10-23T10:22:38.725Z,4.05
2022-10-23T10:25:27.492Z,4.10
2022-10-23T10:28:45.369Z,3.63
2022-10-23T10:31:29.621Z,3.40
2022-10-23T10:34:23.981Z,3.30
2022-10-23T10:37:01.785Z,3.10
2022-10-23T10:39:35.332Z,4.30
2022-10-23T10:42:24.664Z,3.95
2022-10-23T10:45:07.864Z,3.60
2022-10-23T10:47:43.556Z,3.60
2022-10-23T10:50:19.433Z,3.67
2022-10-23T10:53:09.354Z,4.18
2022-10-23T10:55:39.499Z,3.60
2022-10-23T10:58:21.646Z,3.90
2022-10-23T11:00:58.761Z,4.00
2022-10-23T11:03:25.506Z,4.40
2022-10-23T11:05:54.738Z,4.32
2022-10-23T11:08:40.258Z,3.50
2022-10-23T11:11:34.357Z,3.35
2022-10-23T11:14:01.815Z,3.30
2022-10-23T11:16:39.316Z,3.25
2022-10-23T11:19:25.559Z,3.17
2022-10-23T11:22:02.242Z,3.38
2022-10-23T11:25:06.021Z,3.70
2022-10-23T11:27:44.160Z,3.25
2022-10-23T11:30:16.771Z,3.70
2022-10-23T11:33:21.463Z,3.38
2022-10-23T11:36:15.918Z,2.90
2022-10-23T11:38:46.241Z,2.95
2022-10-23T11:41:29.474Z,3.13
2022-10-23T11:44:05.074Z,2.40
2022-10-23T11:46:39.105Z,2.75
2022-10-23T11:49:19.375Z,2.70
2022-10-23T11:51:46.535Z,2.80
2022-10-23T11:54:24.554Z,2.90
2022-10-23T11:57:10.746Z,2.90
2022-10-23T11:59:49.554Z,2.88
2022-10-23T12:02:38.189Z,3.10
2022-10-23T12:05:09.659Z,3.00
2022-10-23T12:07:39.780Z,3.10
2022-10-23T12:10:41.290Z,3.10
2022-10-23T12:13:36.698Z,2.55
2022-10-23T12:16:05.709Z,3.00
2022-10-23T12:18:32.400Z,2.55
2022-10-23T12:21:01.390Z,2.95
2022-10-23T12:23:53.174Z,2.60
2022-10-23T12:26:46.668Z,2.83
2022-10-23T12:29:51.441Z,2.47
2022-10-23T12:32:46.271Z,2.10
2022-10-23T12:35:26.397Z,2.85
2022-10-23T12:38:15.080Z,2.03
2022-10-23T12:40:46.022Z,2.20
2022-10-23T12:43:29.994Z,2.45
2022-10-23T12:46:02.427Z,1.80
2022-10-23T12:48:29.013Z,2.13
2022-10-23T12:50:56.384Z,1.70
2022-10-23T12:53:24.067Z,1.60
2022-10-23T12:55:53.693Z,1.80
2022-10-23T12:58:30.551Z,1.58
2022-10-23T13:01:00.520Z,2.13
2022-10-23T13:03:29.205Z,2.35
2022-10-23T13:05:58.701Z,2.05
2022-10-23T13:08:40.635Z,1.85
2022-10-23T13:11:13.633Z,1.73
2022-10-23T13:13:41.419Z,1.83
2022-10-23T13:16:19.525Z,1.90
2022-10-23T13:18:46.864Z,1.60
2022-10-23T13:21:32.882Z,1.80
2022-10-23T13:23:59.589Z,2.00
2022-10-23T13:26:45.773Z,1.85
2022-10-23T13:29:29.833Z,1.85
2022-10-23T13:31:57.409Z,1.90
2022-10-23T13:34:30.204Z,1.90
2022-10-23T13:37:03.486Z,1.85
2022-10-23T13:39:34.125Z,1.75
2022-10-23T13:42:13.042Z,1.77
2022-10-23T13:44:40.236Z,2.10
2022-10-23T13:47:18.166Z,1.95
2022-10-23T13:49:44.997Z,1.90
2022-10-23T13:52:14.084Z,2.20
2022-10-23T13:54:40.981Z,1.90
2022-10-23T13:57:14.147Z,1.92
2022-10-23T13:59:40.945Z,2.08
2022-10-23T14:02:22.549Z,1.65
2022-10-23T14:04:50.727Z,1.85
2022-10-23T14:07:17.400Z,1.77
2022-10-23T14:09:46.445Z,2.00
2022-10-23T14:12:13.521Z,1.77
2022-10-23T14:14:40.377Z,1.55
2022-10-23T14:17:07.165Z,2.03
2022-10-23T14:19:34.069Z,1.63
2022-10-23T14:22:00.655Z,1.83
2022-10-23T14:24:27.259Z,1.75
2022-10-23T14:26:53.885Z,1.67
2022-10-23T14:29:24.174Z,1.80
2022-10-23T14:31:51.512Z,1.75
2022-10-23T14:34:18.139Z,2.15
2022-10-23T14:36:50.253Z,2.03
2022-10-23T14:39:23.414Z,1.92
2022-10-23T14:41:50.051Z,1.77
2022-10-23T14:44:16.656Z,1.98
2022-10-23T14:46:43.404Z,2.00
2022-10-23T14:49:10.046Z,2.10
2022-10-23T14:51:36.713Z,2.20
2022-10-23T14:54:05.909Z,1.60
2022-10-23T14:56:35.405Z,1.90
2022-10-23T14:59:04.866Z,1.92
2022-10-23T15:01:33.891Z,1.80
2022-10-23T15:04:00.624Z,1.65
2022-10-23T15:06:27.381Z,1.63
2022-10-23T15:08:57.223Z,1.70
2022-10-23T15:11:24.779Z,2.10
2022-10-23T15:13:52.180Z,2.05
2022-10-23T15:16:18.811Z,1.70
2022-10-23T15:18:45.447Z,2.22
2022-10-23T15:21:12.876Z,1.70
2022-10-23T15:23:41.883Z,1.83
2022-10-23T15:26:13.447Z,1.63
2022-10-23T15:28:40.004Z,1.42
2022-10-23T15:31:06.631Z,1.58
2022-10-23T15:33:33.394Z,1.52
2022-10-23T15:36:00.025Z,1.65
2022-10-23T15:38:26.735Z,1.70
2022-10-23T15:41:03.744Z,1.73
2022-10-23T15:43:30.447Z,1.90
2022-10-23T15:45:57.041Z,1.70
2022-10-23T15:48:23.657Z,1.70
2022-10-23T15:50:50.449Z,1.50
2022-10-23T15:53:16.998Z,1.75
2022-10-23T15:55:43.649Z,1.33
2022-10-23T15:58:11.304Z,1.75
2022-10-23T16:00:39.215Z,1.27
2022-10-23T16:03:05.814Z,1.55
2022-10-23T16:05:32.472Z,1.90
2022-10-23T16:07:59.287Z,1.70
2022-10-23T16:10:25.895Z,1.70
2022-10-23T16:12:52.524Z,1.85
2022-10-23T16:15:19.241Z,1.48
2022-10-23T16:17:46.286Z,1.88
2022-10-23T16:20:13.145Z,1.30
2022-10-23T16:22:42.678Z,1.40
2022-10-23T16:25:11.722Z,1.70
2022-10-23T16:27:38.408Z,1.80
2022-10-23T16:30:08.852Z,1.88
2022-10-23T16:32:36.583Z,2.10
2022-10-23T16:35:03.446Z,1.98
2022-10-23T16:37:30.182Z,1.70
2022-10-23T16:39:56.805Z,2.10
2022-10-23T16:42:23.575Z,2.00
2022-10-23T16:44:50.140Z,2.60
2022-10-23T16:47:16.785Z,2.60
2022-10-23T16:49:43.467Z,2.00
2022-10-23T16:52:10.123Z,1.98
2022-10-23T16:54:36.715Z,1.50
2022-10-23T16:57:03.443Z,1.65
2022-10-23T16:59:30.051Z,1.83
2022-10-23T17:01:56.681Z,1.80
2022-10-23T17:04:23.290Z,2.03
2022-10-23T17:06:49.849Z,1.90
2022-10-23T17:09:19.117Z,1.83
2022-10-23T17:11:45.757Z,1.90
2022-10-23T17:14:17.312Z,2.35
2022-10-23T17:16:50.460Z,1.90
2022-10-23T17:22:11.450Z,2.05
2022-10-23T17:24:39.416Z,2.00
2022-10-23T17:27:06.341Z,2.10
2022-10-23T17:29:33.323Z,2.00
2022-10-23T17:32:00.140Z,2.22
2022-10-23T17:34:26.791Z,2.05
2022-10-23T17:36:54.719Z,2.20
2022-10-23T17:39:27.063Z,2.30
2022-10-23T17:41:54.243Z,2.35
2022-10-23T17:44:21.277Z,2.50
2022-10-23T17:46:55.240Z,2.40
2022-10-23T17:49:24.029Z,2.72
2022-10-23T17:51:56.568Z,3.30
2022-10-23T17:54:24.903Z,3.72
2022-10-23T17:56:51.671Z,3.75
2022-10-23T17:59:19.405Z,3.72
2022-10-23T18:01:49.094Z,3.65
2022-10-23T18:04:19.026Z,4.10
2022-10-23T18:06:52.543Z,3.45
2022-10-23T18:09:20.952Z,3.60
2022-10-23T18:11:48.428Z,3.15
2022-10-23T18:14:18.110Z,3.17
2022-10-23T18:16:45.726Z,3.20
2022-10-23T18:19:13.248Z,3.38
2022-10-23T18:21:40.081Z,3.85
2022-10-23T18:24:06.887Z,3.95
2022-10-23T18:26:38.964Z,3.63
2022-10-23T18:29:09.441Z,3.90
2022-10-23T18:31:37.449Z,3.58
2022-10-23T18:34:23.007Z,2.95
2022-10-23T18:36:51.023Z,3.28
2022-10-23T18:39:22.105Z,3.78
2022-10-23T18:41:51.724Z,3.72
2022-10-23T18:44:21.005Z,3.50
2022-10-23T18:46:49.172Z,4.63
2022-10-23T18:49:18.334Z,4.15
2022-10-23T18:51:45.326Z,4.55
2022-10-23T18:54:14.522Z,4.25
2022-10-23T18:56:41.612Z,3.72
2022-10-23T18:59:12.760Z,4.65
2022-10-23T19:01:39.970Z,4.95
2022-10-23T19:04:06.806Z,4.82
2022-10-23T19:06:35.808Z,4.43
2022-10-23T19:09:04.659Z,4.80
2022-10-23T19:11:31.226Z,4.78
2022-10-23T19:13:57.785Z,5.47
2022-10-23T19:16:55.990Z,4.97
2022-10-23T19:19:26.856Z,4.80
2022-10-23T19:21:55.267Z,4.72
2022-10-23T19:24:33.668Z,4.75
2022-10-23T19:27:01.183Z,5.10
2022-10-23T19:29:28.740Z,4.90
2022-10-23T19:31:56.038Z,5.20
2022-10-23T19:34:24.910Z,5.63
2022-10-23T19:36:53.508Z,5.97
2022-10-23T19:39:20.764Z,5.47
2022-10-23T19:41:47.640Z,5.82
2022-10-23T19:44:14.808Z,5.43
2022-10-23T19:46:41.439Z,5.03
2022-10-23T19:49:08.937Z,4.95
2022-10-23T19:51:36.263Z,4.88
2022-10-23T19:54:03.464Z,4.53
2022-10-23T19:56:30.102Z,4.65
2022-10-23T19:58:56.874Z,4.93
2022-10-23T20:01:25.620Z,4.68
2022-10-23T20:03:52.594Z,5.53
2022-10-23T20:06:22.313Z,4.32
2022-10-23T20:08:49.418Z,4.72
2022-10-23T20:11:25.995Z,5.05
2022-10-23T20:13:53.000Z,5.68
2022-10-23T20:16:25.119Z,5.20
2022-10-23T20:18:52.399Z,5.03
2022-10-23T20:21:19.953Z,4.85
2022-10-23T20:23:47.195Z,5.43
2022-10-23T20:26:16.640Z,5.55
2022-10-23T20:28:46.924Z,4.97
2022-10-23T20:31:15.507Z,5.03
2022-10-23T20:33:42.179Z,5.40
2022-10-23T20:36:20.300Z,5.47
2022-10-23T20:38:47.055Z,6.72
2022-10-23T20:41:13.786Z,6.28
2022-10-23T20:43:40.532Z,5.50
2022-10-23T20:46:08.714Z,6.10
2022-10-23T20:48:40.796Z,5.70
2022-10-23T20:51:10.032Z,5.20
2022-10-23T20:53:38.317Z,4.82
2022-10-23T20:56:11.504Z,5.22
2022-10-23T20:58:38.289Z,5.07
2022-10-23T21:01:08.925Z,4.93
2022-10-23T21:03:37.108Z,4.85
2022-10-23T21:06:06.291Z,5.25
2022-10-23T21:08:33.173Z,4.80
2022-10-23T21:10:59.876Z,5.03
2022-10-23T21:13:27.545Z,4.70
2022-10-23T21:15:54.424Z,5.03
2022-10-23T21:18:34.161Z,4.68
2022-10-23T21:21:10.734Z,6.25
2022-10-23T21:23:37.795Z,5.75
2022-10-23T21:26:07.333Z,5.80
2022-10-23T21:28:34.957Z,5.72
2022-10-23T21:31:06.600Z,6.60
2022-10-23T21:33:33.774Z,6.70
2022-10-23T21:36:13.537Z,5.93
2022-10-23T21:38:40.687Z,5.40
2022-10-23T21:41:09.219Z,6.03
2022-10-23T21:43:36.051Z,5.55
2022-10-23T21:46:04.852Z,5.43
2022-10-23T21:48:32.044Z,5.10
2022-10-23T21:51:02.040Z,5.38
2022-10-23T21:53:29.077Z,5.85
2022-10-23T21:56:00.441Z,6.45
2022-10-23T21:58:27.091Z,5.35
2022-10-23T22:00:53.765Z,5.18
2022-10-23T22:03:20.508Z,5.13
2022-10-23T22:05:47.237Z,5.15
2022-10-23T22:08:13.946Z,5.20
2022-10-23T22:10:40.626Z,5.93
2022-10-23T22:13:07.383Z,6.68
2022-10-23T22:15:33.982Z,5.38
2022-10-23T22:18:00.605Z,4.90
2022-10-23T22:20:27.263Z,6.25
2022-10-23T22:22:53.783Z,5.50
2022-10-23T22:25:20.337Z,5.57
2022-10-23T22:27:47.085Z,5.32
2022-10-23T22:30:13.900Z,4.50
2022-10-23T22:32:40.627Z,5.32
2022-10-23T22:35:07.675Z,4.82
2022-10-23T22:37:34.230Z,4.90
2022-10-23T22:40:01.631Z,4.45
2022-10-23T22:42:28.311Z,5.43
2022-10-23T22:44:54.955Z,5.10
2022-10-23T22:47:21.621Z,6.65
2022-10-23T22:49:48.225Z,6.20
2022-10-23T22:52:14.786Z,7.10
2022-10-23T22:54:41.336Z,6.00
2022-10-23T22:57:07.933Z,7.05
2022-10-23T22:59:34.498Z,5.72
2022-10-23T23:02:01.084Z,5.75
2022-10-23T23:04:43.087Z,5.45
2022-10-23T23:07:12.027Z,6.20
2022-10-23T23:09:40.989Z,5.18
2022-10-23T23:12:09.182Z,5.93
2022-10-23T23:14:36.364Z,6.22
2022-10-23T23:17:03.320Z,4.93
2022-10-23T23:19:30.269Z,4.65
2022-10-23T23:21:58.416Z,5.22
2022-10-23T23:24:25.977Z,5.22
2022-10-23T23:26:52.751Z,5.25
2022-10-23T23:29:19.576Z,5.47
2022-10-23T23:31:46.160Z,5.22
2022-10-23T23:34:12.818Z,5.70
2022-10-23T23:36:39.412Z,5.32
2022-10-23T23:39:05.977Z,5.50
2022-10-23T23:41:32.729Z,5.30
2022-10-23T23:43:59.320Z,5.88
2022-10-23T23:46:25.935Z,5.53
2022-10-23T23:48:52.564Z,4.60
2022-10-23T23:51:23.582Z,5.35
2022-10-23T23:53:50.997Z,5.90
2022-10-23T23:56:18.308Z,4.32
2022-10-23T23:58:44.884Z,4.72
